Time;durP1;ratioP1;P1;durP2;ratioP2;P2;SDS_P1;SDS_P2;PMS_P1;PMS_P2;Temp;Humidity;BMP_temperature;BMP_pressure;BME280_temperature;BME280_humidity;BME280_pressure;Samples;Min_cycle;Max_cycle;Signal;HPM_P1;HPM_P2
2022/02/16 00:02:11;;;;;;;29.08;11.10;;;;;;;;;;5084423;28;20092;-65
2022/02/16 00:04:38;;;;;;;32.85;11.57;;;;;;;;;;5083215;28;20041;-64
2022/02/16 00:07:05;;;;;;;32.33;11.88;;;;;;;;;;5083594;28;20049;-64
2022/02/16 00:09:31;;;;;;;29.65;11.20;;;;;;;;;;5083189;28;20075;-64
2022/02/16 00:12:00;;;;;;;44.83;13.20;;;;;;;;;;5084157;28;20048;-64
2022/02/16 00:14:26;;;;;;;33.97;13.15;;;;;;;;;;5084683;28;20512;-64
2022/02/16 00:16:53;;;;;;;30.50;12.13;;;;;;;;;;5084083;28;20135;-64
2022/02/16 00:19:19;;;;;;;39.22;12.63;;;;;;;;;;5083016;28;20056;-64
2022/02/16 00:21:45;;;;;;;30.05;11.23;;;;;;;;;;5083570;28;20047;-64
2022/02/16 00:24:11;;;;;;;33.10;10.60;;;;;;;;;;5084111;28;20516;-64
2022/02/16 00:26:37;;;;;;;34.53;12.00;;;;;;;;;;5082007;28;20048;-65
2022/02/16 00:29:03;;;;;;;37.38;10.27;;;;;;;;;;5084061;28;20181;-64
2022/02/16 00:31:30;;;;;;;32.85;10.13;;;;;;;;;;5083948;28;20096;-64
2022/02/16 00:33:56;;;;;;;32.35;10.70;;;;;;;;;;5084041;28;20455;-64
2022/02/16 00:36:22;;;;;;;36.20;10.30;;;;;;;;;;5083395;28;20070;-64
2022/02/16 00:38:48;;;;;;;31.52;9.38;;;;;;;;;;5083959;28;20083;-64
2022/02/16 00:41:14;;;;;;;27.75;9.65;;;;;;;;;;5084237;28;20115;-64
2022/02/16 00:43:40;;;;;;;40.50;9.82;;;;;;;;;;5088126;28;20099;-64
2022/02/16 00:46:06;;;;;;;34.03;9.50;;;;;;;;;;5087883;28;20052;-64
2022/02/16 00:48:33;;;;;;;38.53;8.60;;;;;;;;;;5086669;28;20045;-64
2022/02/16 00:50:59;;;;;;;36.03;10.13;;;;;;;;;;5086985;28;20045;-64
2022/02/16 00:53:25;;;;;;;43.38;9.75;;;;;;;;;;5088167;28;20048;-64
2022/02/16 00:55:52;;;;;;;31.38;10.15;;;;;;;;;;5087450;28;20119;-64
2022/02/16 00:58:18;;;;;;;31.48;9.18;;;;;;;;;;5087532;28;20040;-64
2022/02/16 01:00:45;;;;;;;37.08;10.30;;;;;;;;;;5087647;28;20095;-64
2022/02/16 01:03:11;;;;;;;37.65;9.55;;;;;;;;;;5086600;28;20063;-64
2022/02/16 01:05:38;;;;;;;32.65;9.48;;;;;;;;;;5087633;28;20099;-64
2022/02/16 01:08:07;;;;;;;45.40;11.00;;;;;;;;;;5086189;28;20079;-63
2022/02/16 01:10:34;;;;;;;34.22;9.77;;;;;;;;;;5087597;28;20060;-64
2022/02/16 01:13:00;;;;;;;28.98;9.13;;;;;;;;;;5087217;28;20099;-64
2022/02/16 01:15:26;;;;;;;28.95;8.02;;;;;;;;;;5086979;28;20500;-64
2022/02/16 01:17:52;;;;;;;33.80;8.38;;;;;;;;;;5086044;28;20154;-64
2022/02/16 01:20:18;;;;;;;28.95;7.93;;;;;;;;;;5086542;28;20071;-64
2022/02/16 01:22:44;;;;;;;34.47;7.45;;;;;;;;;;5086641;28;20044;-64
2022/02/16 01:25:10;;;;;;;31.80;7.43;;;;;;;;;;5087231;28;20052;-64
2022/02/16 01:27:37;;;;;;;28.17;7.78;;;;;;;;;;5086681;28;20072;-64
2022/02/16 01:30:03;;;;;;;26.02;6.20;;;;;;;;;;5086222;28;20048;-64
2022/02/16 01:32:29;;;;;;;24.15;7.18;;;;;;;;;;5087207;28;20048;-64
2022/02/16 01:34:56;;;;;;;25.55;6.88;;;;;;;;;;5087499;28;20036;-64
2022/02/16 01:37:22;;;;;;;32.53;8.02;;;;;;;;;;5086279;28;20033;-63
2022/02/16 01:39:48;;;;;;;35.30;7.95;;;;;;;;;;5087055;28;20583;-64
2022/02/16 01:42:17;;;;;;;37.53;8.20;;;;;;;;;;5086543;28;20049;-63
2022/02/16 01:44:44;;;;;;;33.08;8.82;;;;;;;;;;5086387;28;20056;-64
2022/02/16 01:47:10;;;;;;;28.73;8.68;;;;;;;;;;5078594;28;20049;-64
2022/02/16 01:49:38;;;;;;;35.22;8.65;;;;;;;;;;5066568;28;20048;-63
2022/02/16 01:52:05;;;;;;;36.45;10.52;;;;;;;;;;5064713;28;20056;-63
2022/02/16 01:54:31;;;;;;;43.58;10.65;;;;;;;;;;5065498;28;20127;-63
2022/02/16 01:56:57;;;;;;;33.17;11.38;;;;;;;;;;5098628;28;20058;-64
2022/02/16 01:59:24;;;;;;;38.45;11.25;;;;;;;;;;5085587;28;20045;-64
2022/02/16 02:01:51;;;;;;;47.42;11.13;;;;;;;;;;5084505;28;20048;-64
2022/02/16 02:04:17;;;;;;;45.10;12.48;;;;;;;;;;5084289;28;20534;-63
2022/02/16 02:06:44;;;;;;;40.50;11.77;;;;;;;;;;5083705;28;20040;-63
2022/02/16 02:09:10;;;;;;;50.85;12.65;;;;;;;;;;5085332;28;20048;-63
2022/02/16 02:11:36;;;;;;;40.50;11.02;;;;;;;;;;5083906;28;20052;-64
2022/02/16 02:14:04;;;;;;;36.67;10.75;;;;;;;;;;5085323;28;20045;-63
2022/02/16 02:16:31;;;;;;;37.83;9.68;;;;;;;;;;5084295;28;20062;-64
2022/02/16 02:18:57;;;;;;;41.50;12.23;;;;;;;;;;5084194;28;20631;-63
2022/02/16 02:21:23;;;;;;;34.13;8.25;;;;;;;;;;5083172;28;20052;-64
2022/02/16 02:23:50;;;;;;;34.05;10.18;;;;;;;;;;5085112;28;20504;-63
2022/02/16 02:26:17;;;;;;;43.22;9.50;;;;;;;;;;5084769;28;20058;-64
2022/02/16 02:28:43;;;;;;;38.63;9.95;;;;;;;;;;5085317;28;20037;-64
2022/02/16 02:31:09;;;;;;;26.33;7.80;;;;;;;;;;5084779;28;20111;-64
2022/02/16 02:33:38;;;;;;;29.42;8.63;;;;;;;;;;5084954;28;20059;-64
2022/02/16 02:36:05;;;;;;;47.90;8.68;;;;;;;;;;5084521;28;20050;-64
2022/02/16 02:38:35;;;;;;;30.02;6.68;;;;;;;;;;5084689;28;20044;-64
2022/02/16 02:41:02;;;;;;;33.20;7.72;;;;;;;;;;5084862;28;20040;-63
2022/02/16 02:43:29;;;;;;;29.58;6.82;;;;;;;;;;5083727;28;20116;-64
2022/02/16 02:45:56;;;;;;;37.77;7.77;;;;;;;;;;5047559;28;1074471;-64
2022/02/16 02:48:22;;;;;;;31.10;7.82;;;;;;;;;;5085595;28;20048;-64
2022/02/16 02:50:50;;;;;;;27.35;6.07;;;;;;;;;;5084647;28;20058;-64
2022/02/16 02:53:16;;;;;;;31.10;6.45;;;;;;;;;;5085870;28;20045;-64
2022/02/16 02:55:42;;;;;;;27.15;6.53;;;;;;;;;;5085564;28;20546;-64
2022/02/16 02:58:09;;;;;;;22.52;5.90;;;;;;;;;;5085463;28;20347;-64
2022/02/16 03:00:35;;;;;;;28.33;7.38;;;;;;;;;;5085501;28;20170;-64
2022/02/16 03:03:02;;;;;;;26.02;6.03;;;;;;;;;;5085301;28;20485;-64
2022/02/16 03:05:28;;;;;;;24.67;6.90;;;;;;;;;;5084649;28;20056;-64
2022/02/16 03:07:54;;;;;;;27.02;7.63;;;;;;;;;;5083300;28;20064;-64
2022/02/16 03:10:20;;;;;;;36.00;7.75;;;;;;;;;;5085772;28;20040;-64
2022/02/16 03:12:46;;;;;;;29.35;7.45;;;;;;;;;;5083736;28;20049;-64
2022/02/16 03:15:13;;;;;;;24.25;9.25;;;;;;;;;;5084138;28;20048;-65
2022/02/16 03:17:39;;;;;;;33.40;9.60;;;;;;;;;;5085115;28;20032;-64
2022/02/16 03:20:06;;;;;;;35.42;10.68;;;;;;;;;;5085258;28;20053;-65
2022/02/16 03:22:32;;;;;;;34.30;11.40;;;;;;;;;;5082801;28;20053;-64
2022/02/16 03:24:59;;;;;;;38.13;12.45;;;;;;;;;;5085183;28;20051;-64
2022/02/16 03:27:25;;;;;;;37.60;12.93;;;;;;;;;;5084748;28;20052;-64
2022/02/16 03:29:52;;;;;;;37.65;13.27;;;;;;;;;;5084994;28;20051;-64
2022/02/16 03:32:18;;;;;;;39.85;12.60;;;;;;;;;;5084620;28;20169;-65
2022/02/16 03:34:44;;;;;;;37.15;13.90;;;;;;;;;;5085042;28;20041;-64
2022/02/16 03:37:10;;;;;;;44.50;16.23;;;;;;;;;;5117133;28;20044;-65
2022/02/16 03:39:36;;;;;;;44.67;16.00;;;;;;;;;;5084818;28;20053;-65
2022/02/16 03:42:03;;;;;;;40.22;15.50;;;;;;;;;;5084318;28;20049;-66
2022/02/16 03:44:29;;;;;;;32.50;17.38;;;;;;;;;;5083456;28;20048;-65
2022/02/16 03:46:55;;;;;;;33.53;16.13;;;;;;;;;;5084294;28;20112;-66
2022/02/16 03:49:22;;;;;;;45.17;18.75;;;;;;;;;;5084501;28;20412;-66
2022/02/16 03:51:50;;;;;;;40.60;17.58;;;;;;;;;;5083968;28;20045;-65
2022/02/16 03:54:16;;;;;;;48.90;19.95;;;;;;;;;;5084649;28;20052;-65
2022/02/16 03:56:42;;;;;;;45.60;20.10;;;;;;;;;;5084475;28;20104;-65
2022/02/16 03:59:08;;;;;;;45.22;20.65;;;;;;;;;;5100040;28;20522;-65
2022/02/16 04:01:34;;;;;;;40.15;20.00;;;;;;;;;;5084117;28;20044;-66
2022/02/16 04:04:01;;;;;;;43.78;22.02;;;;;;;;;;5084734;28;20056;-66
2022/02/16 04:06:27;;;;;;;46.13;22.05;;;;;;;;;;5084245;28;20485;-66
2022/02/16 04:08:53;;;;;;;52.22;22.77;;;;;;;;;;5084276;28;20056;-66
2022/02/16 04:11:20;;;;;;;42.28;21.20;;;;;;;;;;5084260;28;20047;-67
2022/02/16 04:13:49;;;;;;;44.58;22.05;;;;;;;;;;5084027;28;20048;-67
2022/02/16 04:16:15;;;;;;;50.17;21.92;;;;;;;;;;5082614;28;20511;-67
2022/02/16 04:18:42;;;;;;;46.38;21.50;;;;;;;;;;5083245;28;20033;-67
2022/02/16 04:21:08;;;;;;;44.00;22.20;;;;;;;;;;5081846;28;20135;-67
2022/02/16 04:23:34;;;;;;;43.88;22.70;;;;;;;;;;5082978;28;20112;-66
2022/02/16 04:26:01;;;;;;;39.65;20.55;;;;;;;;;;5084037;28;20041;-66
2022/02/16 04:28:27;;;;;;;43.88;22.77;;;;;;;;;;5082722;28;20048;-65
2022/02/16 04:30:53;;;;;;;45.17;20.13;;;;;;;;;;5083951;28;20097;-66
2022/02/16 04:33:20;;;;;;;39.33;20.92;;;;;;;;;;5084477;28;20049;-65
2022/02/16 04:35:46;;;;;;;33.13;18.00;;;;;;;;;;5083650;28;20068;-64
2022/02/16 04:38:12;;;;;;;33.25;18.65;;;;;;;;;;5083958;28;20132;-64
2022/02/16 04:40:39;;;;;;;35.33;17.10;;;;;;;;;;5082780;28;20059;-65
2022/02/16 04:43:05;;;;;;;37.75;19.00;;;;;;;;;;5083361;28;20052;-65
2022/02/16 04:45:32;;;;;;;38.30;19.77;;;;;;;;;;5084011;28;20109;-66
2022/02/16 04:47:59;;;;;;;37.20;19.33;;;;;;;;;;5083640;28;20084;-66
2022/02/16 04:50:25;;;;;;;30.90;18.05;;;;;;;;;;5084022;28;20049;-65
2022/02/16 04:52:54;;;;;;;40.70;19.27;;;;;;;;;;5082112;28;20595;-65
2022/02/16 04:55:21;;;;;;;32.53;17.05;;;;;;;;;;5084216;28;20052;-65
2022/02/16 04:57:47;;;;;;;31.63;17.23;;;;;;;;;;5083683;28;20564;-65
2022/02/16 05:00:13;;;;;;;36.90;19.48;;;;;;;;;;5083858;28;20059;-65
2022/02/16 05:02:40;;;;;;;30.83;19.15;;;;;;;;;;5082554;28;20049;-65
2022/02/16 05:05:06;;;;;;;30.75;17.13;;;;;;;;;;5083844;28;20066;-65
2022/02/16 05:07:32;;;;;;;27.33;15.88;;;;;;;;;;5083105;28;20051;-65
2022/02/16 05:09:58;;;;;;;32.42;19.15;;;;;;;;;;5082478;28;20056;-65
2022/02/16 05:12:25;;;;;;;32.72;18.02;;;;;;;;;;5082042;28;20127;-65
2022/02/16 05:14:51;;;;;;;30.10;17.48;;;;;;;;;;5083997;28;20055;-65
2022/02/16 05:17:17;;;;;;;25.80;16.63;;;;;;;;;;5082585;28;20107;-65
2022/02/16 05:19:43;;;;;;;38.70;19.15;;;;;;;;;;5083722;28;20448;-65
2022/02/16 05:22:09;;;;;;;26.15;16.67;;;;;;;;;;5082997;28;20045;-65
2022/02/16 05:24:36;;;;;;;27.30;17.35;;;;;;;;;;5082467;28;20573;-65
2022/02/16 05:27:02;;;;;;;27.70;17.63;;;;;;;;;;5083574;28;20067;-65
2022/02/16 05:29:29;;;;;;;20.35;13.73;;;;;;;;;;5086722;28;20056;-64
2022/02/16 05:31:55;;;;;;;27.25;16.25;;;;;;;;;;5086945;28;20123;-65
2022/02/16 05:34:21;;;;;;;28.13;16.90;;;;;;;;;;5085928;28;20108;-66
2022/02/16 05:36:47;;;;;;;33.70;16.63;;;;;;;;;;5085078;28;20040;-66
2022/02/16 05:39:13;;;;;;;28.27;16.13;;;;;;;;;;5087466;28;20094;-65
2022/02/16 05:41:39;;;;;;;25.45;15.07;;;;;;;;;;5102818;28;20048;-65
2022/02/16 05:44:06;;;;;;;30.15;15.38;;;;;;;;;;5086637;28;20080;-65
2022/02/16 05:46:32;;;;;;;25.55;15.63;;;;;;;;;;5086889;28;20074;-66
2022/02/16 05:48:58;;;;;;;27.17;15.38;;;;;;;;;;5086795;28;20048;-66
2022/02/16 05:51:24;;;;;;;20.65;12.93;;;;;;;;;;5084920;28;20048;-66
2022/02/16 05:53:50;;;;;;;22.65;12.20;;;;;;;;;;5085937;28;20108;-66
2022/02/16 05:56:16;;;;;;;25.20;11.70;;;;;;;;;;5086760;28;20236;-65
2022/02/16 05:58:42;;;;;;;19.15;11.20;;;;;;;;;;5086381;28;20072;-65
2022/02/16 06:01:09;;;;;;;16.90;10.95;;;;;;;;;;5086786;28;20067;-65
2022/02/16 06:03:35;;;;;;;17.50;10.15;;;;;;;;;;5086678;28;20037;-66
2022/02/16 06:06:01;;;;;;;19.27;10.63;;;;;;;;;;5085027;28;20044;-66
2022/02/16 06:08:27;;;;;;;18.23;10.05;;;;;;;;;;5086522;28;20048;-66
2022/02/16 06:10:57;;;;;;;15.88;8.68;;;;;;;;;;5085216;28;20057;-66
2022/02/16 06:13:23;;;;;;;20.52;11.93;;;;;;;;;;5086263;28;20049;-66
2022/02/16 06:15:50;;;;;;;19.13;10.65;;;;;;;;;;5084992;28;20618;-66
2022/02/16 06:18:16;;;;;;;17.02;10.75;;;;;;;;;;5085038;28;20110;-66
2022/02/16 06:20:42;;;;;;;15.52;11.13;;;;;;;;;;5086391;28;20044;-67
2022/02/16 06:23:08;;;;;;;16.90;10.73;;;;;;;;;;5084757;28;20492;-66
2022/02/16 06:25:34;;;;;;;21.92;11.80;;;;;;;;;;5085987;28;20049;-66
2022/02/16 06:28:03;;;;;;;20.38;12.23;;;;;;;;;;5084686;28;20037;-67
2022/02/16 06:30:29;;;;;;;20.48;13.07;;;;;;;;;;5086238;28;20044;-68
2022/02/16 06:32:55;;;;;;;20.02;12.43;;;;;;;;;;5086461;28;20051;-68
2022/02/16 06:35:21;;;;;;;16.15;12.20;;;;;;;;;;5085066;28;20052;-69
2022/02/16 06:37:47;;;;;;;21.13;14.15;;;;;;;;;;5084172;28;20052;-68
2022/02/16 06:40:14;;;;;;;14.52;10.88;;;;;;;;;;5084902;28;20148;-68
2022/02/16 06:42:41;;;;;;;17.75;11.88;;;;;;;;;;5085214;28;20039;-70
2022/02/16 06:45:08;;;;;;;15.10;11.40;;;;;;;;;;5085637;28;20096;-68
2022/02/16 06:47:34;;;;;;;15.65;10.85;;;;;;;;;;5091937;28;20117;-67
2022/02/16 06:50:00;;;;;;;16.95;11.13;;;;;;;;;;5092608;28;20048;-69
2022/02/16 06:52:26;;;;;;;17.20;12.18;;;;;;;;;;5084626;28;20517;-69
2022/02/16 06:54:53;;;;;;;15.40;11.10;;;;;;;;;;5084401;28;20127;-67
2022/02/16 06:57:19;;;;;;;15.93;10.38;;;;;;;;;;5090442;28;20043;-67
2022/02/16 06:59:45;;;;;;;13.93;9.70;;;;;;;;;;5093505;28;20130;-66
2022/02/16 07:02:11;;;;;;;13.13;9.30;;;;;;;;;;5103892;28;20127;-66
2022/02/16 07:04:37;;;;;;;16.23;9.32;;;;;;;;;;5090505;28;20099;-66
2022/02/16 07:07:04;;;;;;;14.43;9.52;;;;;;;;;;5089773;28;20530;-66
2022/02/16 07:09:30;;;;;;;12.77;8.23;;;;;;;;;;5087944;28;20055;-66
2022/02/16 07:11:56;;;;;;;11.45;8.32;;;;;;;;;;5100093;28;20067;-67
2022/02/16 07:14:25;;;;;;;11.45;8.05;;;;;;;;;;5085771;28;20127;-66
2022/02/16 07:16:51;;;;;;;10.85;7.47;;;;;;;;;;5093488;28;20062;-66
2022/02/16 07:19:22;;;;;;;10.95;7.40;;;;;;;;;;5092388;28;20044;-65
2022/02/16 07:21:48;;;;;;;10.32;6.88;;;;;;;;;;5086478;28;20071;-66
2022/02/16 07:24:14;;;;;;;13.20;6.18;;;;;;;;;;5084748;28;20056;-67
2022/02/16 07:26:40;;;;;;;9.55;7.00;;;;;;;;;;5083577;28;20087;-66
2022/02/16 07:29:07;;;;;;;8.73;5.88;;;;;;;;;;5085420;28;20113;-65
2022/02/16 07:31:33;;;;;;;9.93;7.00;;;;;;;;;;5117132;28;20051;-65
2022/02/16 07:33:59;;;;;;;8.35;5.93;;;;;;;;;;5084824;28;20074;-65
2022/02/16 07:36:25;;;;;;;8.43;5.43;;;;;;;;;;5082976;28;20055;-65
2022/02/16 07:38:51;;;;;;;4.00;3.53;;;;;;;;;;5083317;28;20522;-66
2022/02/16 07:41:18;;;;;;;5.25;4.35;;;;;;;;;;5084709;28;20119;-66
2022/02/16 07:43:44;;;;;;;7.43;4.90;;;;;;;;;;5083594;28;20120;-65
2022/02/16 07:46:10;;;;;;;6.63;4.75;;;;;;;;;;5084269;28;20066;-65
2022/02/16 07:48:36;;;;;;;6.10;4.53;;;;;;;;;;5099447;28;20208;-65
2022/02/16 07:51:03;;;;;;;5.50;4.03;;;;;;;;;;5103907;28;20075;-68
2022/02/16 07:53:30;;;;;;;7.50;4.47;;;;;;;;;;5093033;28;20098;-68
2022/02/16 07:55:56;;;;;;;7.53;4.80;;;;;;;;;;5084483;28;20055;-67
2022/02/16 07:58:25;;;;;;;7.35;4.40;;;;;;;;;;5084757;28;20044;-66
2022/02/16 08:00:51;;;;;;;4.72;3.60;;;;;;;;;;5083035;28;20044;-67
2022/02/16 08:03:17;;;;;;;3.67;3.25;;;;;;;;;;5083478;28;20080;-67
2022/02/16 08:05:43;;;;;;;6.18;4.00;;;;;;;;;;5084378;28;20055;-68
2022/02/16 08:08:10;;;;;;;5.50;3.10;;;;;;;;;;5082732;28;20561;-68
2022/02/16 08:10:36;;;;;;;4.13;3.00;;;;;;;;;;5080472;28;20056;-67
2022/02/16 08:13:03;;;;;;;4.45;3.45;;;;;;;;;;5079205;28;20049;-68
2022/02/16 08:15:31;;;;;;;4.13;3.05;;;;;;;;;;5063746;28;20041;-68
2022/02/16 08:17:57;;;;;;;3.47;2.60;;;;;;;;;;5064152;28;20048;-68
2022/02/16 08:20:24;;;;;;;3.00;2.55;;;;;;;;;;5064270;28;20044;-68
2022/02/16 08:22:50;;;;;;;3.03;2.50;;;;;;;;;;5063776;28;20053;-67
2022/02/16 08:25:16;;;;;;;5.30;2.95;;;;;;;;;;5080044;28;20124;-68
2022/02/16 08:27:42;;;;;;;3.85;2.72;;;;;;;;;;5064659;28;20045;-68
2022/02/16 08:30:10;;;;;;;3.63;2.53;;;;;;;;;;5092843;28;20058;-67
2022/02/16 08:32:37;;;;;;;3.53;2.75;;;;;;;;;;5103044;28;20048;-68
2022/02/16 08:35:04;;;;;;;2.72;2.38;;;;;;;;;;5103344;28;20067;-68
2022/02/16 08:37:30;;;;;;;3.10;2.80;;;;;;;;;;5103017;28;20048;-69
2022/02/16 08:39:56;;;;;;;3.25;2.30;;;;;;;;;;5104200;28;20380;-67
2022/02/16 08:42:22;;;;;;;2.30;2.10;;;;;;;;;;5104075;28;20213;-67
2022/02/16 08:44:49;;;;;;;2.40;1.83;;;;;;;;;;5102989;28;20535;-67
2022/02/16 08:47:16;;;;;;;2.47;2.10;;;;;;;;;;5104406;28;20055;-67
2022/02/16 08:49:44;;;;;;;2.80;1.85;;;;;;;;;;5103108;28;20044;-67
2022/02/16 08:52:11;;;;;;;2.22;2.03;;;;;;;;;;5103646;28;20070;-67
2022/02/16 08:54:37;;;;;;;3.20;2.00;;;;;;;;;;5101206;28;20084;-67
2022/02/16 08:57:04;;;;;;;2.47;1.90;;;;;;;;;;5083848;28;20044;-68
2022/02/16 08:59:30;;;;;;;3.45;2.42;;;;;;;;;;5083157;28;20045;-67
2022/02/16 09:01:57;;;;;;;3.88;2.88;;;;;;;;;;5082639;28;20139;-68
2022/02/16 09:04:23;;;;;;;3.45;2.80;;;;;;;;;;5087644;28;20068;-67
2022/02/16 09:09:38;;;;;;;6.70;3.45;;;;;;;;;;5087645;28;20408;-67
2022/02/16 09:12:05;;;;;;;8.32;4.28;;;;;;;;;;5079544;28;20056;-67
2022/02/16 09:14:31;;;;;;;9.57;4.17;;;;;;;;;;5078868;28;20104;-67
2022/02/16 09:16:58;;;;;;;12.20;5.47;;;;;;;;;;5085841;28;20124;-67
2022/02/16 09:19:24;;;;;;;15.00;5.50;;;;;;;;;;5083421;28;20124;-68
2022/02/16 09:21:52;;;;;;;27.50;5.32;;;;;;;;;;5085157;28;20440;-67
2022/02/16 09:24:18;;;;;;;;;;;;;;;;;;5087232;28;20041;-66
2022/02/16 09:26:44;;;;;;;13.57;4.38;;;;;;;;;;5086635;28;19927;-67
2022/02/16 09:29:11;;;;;;;13.80;4.72;;;;;;;;;;5085313;28;20045;-67
2022/02/16 09:31:37;;;;;;;14.77;3.90;;;;;;;;;;5100746;28;20083;-68
2022/02/16 09:34:03;;;;;;;17.88;4.15;;;;;;;;;;5086889;28;20055;-67
2022/02/16 09:36:31;;;;;;;20.42;4.53;;;;;;;;;;5086341;28;20050;-67
2022/02/16 09:38:58;;;;;;;17.67;3.90;;;;;;;;;;5085276;28;20086;-67
2022/02/16 09:41:24;;;;;;;16.38;3.70;;;;;;;;;;5085205;28;20104;-66
2022/02/16 09:43:50;;;;;;;14.60;3.85;;;;;;;;;;5084820;28;20052;-67
2022/02/16 09:46:17;;;;;;;13.73;2.70;;;;;;;;;;5084733;28;20059;-67
2022/02/16 09:48:44;;;;;;;20.45;3.70;;;;;;;;;;5086405;28;20044;-67
2022/02/16 09:51:11;;;;;;;11.18;2.65;;;;;;;;;;5084318;28;20074;-67
2022/02/16 09:53:37;;;;;;;18.88;3.67;;;;;;;;;;5084659;28;20048;-67
2022/02/16 09:56:04;;;;;;;12.35;2.22;;;;;;;;;;5084875;28;20487;-67
2022/02/16 09:58:32;;;;;;;22.42;3.63;;;;;;;;;;5086042;28;20045;-67
2022/02/16 10:01:08;;;;;;;13.95;3.20;;;;;;;;;;5080635;28;20043;-66
2022/02/16 10:03:35;;;;;;;11.13;3.50;;;;;;;;;;5079020;28;20059;-66
2022/02/16 10:06:01;;;;;;;14.10;2.97;;;;;;;;;;5072356;28;20040;-66
2022/02/16 10:08:43;;;;;;;11.65;3.00;;;;;;;;;;5073811;28;20052;-66
2022/02/16 10:11:09;;;;;;;10.40;2.20;;;;;;;;;;5078871;28;20057;-66
2022/02/16 10:13:35;;;;;;;15.48;2.60;;;;;;;;;;5084569;28;20075;-66
2022/02/16 10:16:01;;;;;;;10.70;2.40;;;;;;;;;;5085790;28;20056;-66
2022/02/16 10:18:28;;;;;;;14.07;3.13;;;;;;;;;;5084648;28;20087;-66
2022/02/16 10:21:10;;;;;;;8.52;2.10;;;;;;;;;;5085262;28;20051;-66
2022/02/16 10:23:41;;;;;;;10.75;1.85;;;;;;;;;;5081458;28;20095;-67
2022/02/16 10:26:07;;;;;;;7.15;1.90;;;;;;;;;;5085431;28;20105;-66
2022/02/16 10:28:39;;;;;;;11.80;2.97;;;;;;;;;;5085339;28;20040;-66
2022/02/16 10:31:09;;;;;;;12.82;2.63;;;;;;;;;;5085615;28;20086;-66
2022/02/16 10:33:39;;;;;;;7.57;2.05;;;;;;;;;;5086208;28;20067;-66
2022/02/16 10:36:09;;;;;;;10.40;2.05;;;;;;;;;;5084170;28;20413;-67
2022/02/16 10:38:53;;;;;;;6.68;1.73;;;;;;;;;;5084842;28;20283;-67
2022/02/16 10:41:19;;;;;;;9.77;1.85;;;;;;;;;;5085931;28;20536;-67
2022/02/16 10:43:45;;;;;;;13.43;2.42;;;;;;;;;;5084550;28;20075;-67
2022/02/16 10:46:18;;;;;;;10.38;1.98;;;;;;;;;;5085642;28;20096;-67
2022/02/16 10:48:44;;;;;;;10.27;1.95;;;;;;;;;;5084579;28;20099;-67
2022/02/16 10:51:17;;;;;;;8.95;2.33;;;;;;;;;;5083839;28;20483;-67
2022/02/16 10:53:44;;;;;;;13.60;2.40;;;;;;;;;;5085756;28;20055;-67
2022/02/16 10:56:10;;;;;;;7.72;1.65;;;;;;;;;;5085438;28;20044;-67
2022/02/16 10:58:38;;;;;;;9.20;1.77;;;;;;;;;;5085457;28;20355;-67
2022/02/16 11:01:04;;;;;;;12.18;2.40;;;;;;;;;;5085494;28;20048;-68
2022/02/16 11:03:30;;;;;;;8.77;1.90;;;;;;;;;;5085602;28;20040;-67
2022/02/16 11:05:57;;;;;;;10.18;2.13;;;;;;;;;;5083549;28;20059;-67
2022/02/16 11:08:28;;;;;;;16.87;2.70;;;;;;;;;;5084206;28;20060;-67
2022/02/16 11:10:54;;;;;;;7.57;2.55;;;;;;;;;;5082611;28;20389;-67
2022/02/16 11:13:24;;;;;;;10.23;2.30;;;;;;;;;;5083539;28;20118;-67
2022/02/16 11:15:51;;;;;;;12.55;2.55;;;;;;;;;;5085233;28;20129;-67
2022/02/16 11:18:22;;;;;;;13.48;2.60;;;;;;;;;;5084186;28;20056;-67
2022/02/16 11:21:07;;;;;;;10.27;2.28;;;;;;;;;;5082056;28;20048;-67
2022/02/16 11:23:37;;;;;;;6.70;1.83;;;;;;;;;;5076261;28;20049;-67
2022/02/16 11:26:23;;;;;;;12.13;2.13;;;;;;;;;;5083073;28;20045;-68
2022/02/16 11:28:49;;;;;;;6.30;1.90;;;;;;;;;;5077698;28;20057;-67
2022/02/16 11:31:25;;;;;;;14.90;3.25;;;;;;;;;;5084213;28;20051;-67
2022/02/16 11:34:10;;;;;;;13.15;2.42;;;;;;;;;;5082300;28;20115;-67
2022/02/16 11:36:56;;;;;;;13.43;2.45;;;;;;;;;;5084275;28;20057;-68
2022/02/16 11:39:44;;;;;;;9.25;2.08;;;;;;;;;;5084980;28;20055;-67
2022/02/16 11:42:11;;;;;;;14.38;2.53;;;;;;;;;;5084896;28;20080;-67
2022/02/16 11:45:01;;;;;;;9.48;1.88;;;;;;;;;;5082644;28;20048;-68
2022/02/16 11:47:36;;;;;;;11.93;2.30;;;;;;;;;;5080080;28;20086;-67
2022/02/16 11:50:22;;;;;;;8.93;2.10;;;;;;;;;;5082866;28;20052;-67
2022/02/16 11:52:52;;;;;;;14.90;3.65;;;;;;;;;;5083076;28;20115;-68
2022/02/16 11:55:26;;;;;;;10.40;2.20;;;;;;;;;;5084753;28;20083;-68
2022/02/16 11:57:55;;;;;;;10.85;1.88;;;;;;;;;;5083037;28;20056;-68
2022/02/16 12:00:26;;;;;;;14.93;2.80;;;;;;;;;;5083165;28;20059;-68
2022/02/16 12:02:55;;;;;;;14.32;1.95;;;;;;;;;;5082753;28;20066;-68
2022/02/16 12:05:45;;;;;;;11.77;2.90;;;;;;;;;;5082713;28;20057;-68
2022/02/16 12:08:36;;;;;;;10.63;2.30;;;;;;;;;;5082775;28;20053;-68
2022/02/16 12:11:28;;;;;;;11.73;2.20;;;;;;;;;;5081088;28;20063;-68
2022/02/16 12:13:58;;;;;;;16.55;2.00;;;;;;;;;;5099269;28;20052;-67
2022/02/16 12:16:29;;;;;;;14.05;2.97;;;;;;;;;;5084323;28;20052;-67
2022/02/16 12:18:56;;;;;;;12.80;2.90;;;;;;;;;;5082782;28;20098;-67
2022/02/16 12:21:27;;;;;;;15.50;3.25;;;;;;;;;;5074647;28;20040;-67
2022/02/16 12:23:59;;;;;;;15.93;2.83;;;;;;;;;;5078702;28;20055;-67
2022/02/16 12:26:26;;;;;;;17.23;3.70;;;;;;;;;;5089772;28;20036;-66
2022/02/16 12:28:57;;;;;;;17.20;2.65;;;;;;;;;;5083783;28;20040;-66
2022/02/16 12:31:24;;;;;;;9.80;2.60;;;;;;;;;;5083715;28;20080;-67
2022/02/16 12:33:54;;;;;;;11.63;2.80;;;;;;;;;;5083681;28;20040;-67
2022/02/16 12:36:21;;;;;;;13.15;2.28;;;;;;;;;;5083916;28;20041;-67
2022/02/16 12:38:48;;;;;;;11.07;2.90;;;;;;;;;;5087994;28;20048;-67
2022/02/16 12:41:17;;;;;;;14.90;2.63;;;;;;;;;;5088060;28;20048;-67
2022/02/16 12:43:54;;;;;;;14.70;2.00;;;;;;;;;;5086506;28;20059;-67
2022/02/16 12:46:21;;;;;;;7.28;2.95;;;;;;;;;;5103154;28;20067;-67
2022/02/16 12:48:48;;;;;;;13.27;2.55;;;;;;;;;;5087577;28;20048;-67
2022/02/16 12:51:22;;;;;;;16.63;3.65;;;;;;;;;;5086233;28;20048;-67
2022/02/16 12:53:49;;;;;;;13.30;3.17;;;;;;;;;;5088317;28;20055;-66
2022/02/16 12:56:16;;;;;;;13.98;3.10;;;;;;;;;;5086884;28;20072;-66
2022/02/16 12:58:42;;;;;;;18.50;3.75;;;;;;;;;;5081999;28;20052;-66
2022/02/16 13:01:08;;;;;;;23.48;4.55;;;;;;;;;;5078485;28;20080;-67
2022/02/16 13:03:35;;;;;;;23.33;3.80;;;;;;;;;;5084277;28;20068;-67
2022/02/16 13:06:03;;;;;;;16.02;2.85;;;;;;;;;;5080749;28;20479;-66
2022/02/16 13:08:29;;;;;;;18.75;3.92;;;;;;;;;;5087141;28;20044;-67
2022/02/16 13:10:58;;;;;;;20.80;3.55;;;;;;;;;;5083768;28;20052;-67
2022/02/16 13:13:26;;;;;;;22.85;4.30;;;;;;;;;;5085657;28;20094;-67
2022/02/16 13:15:52;;;;;;;19.50;3.65;;;;;;;;;;5073375;28;20103;-67
2022/02/16 13:18:29;;;;;;;17.85;3.25;;;;;;;;;;5085459;28;20082;-66
2022/02/16 13:21:10;;;;;;;18.77;3.38;;;;;;;;;;5084675;28;20060;-66
2022/02/16 13:23:36;;;;;;;18.48;2.75;;;;;;;;;;5086660;28;20059;-67
2022/02/16 13:26:10;;;;;;;15.18;3.55;;;;;;;;;;5098148;28;20134;-68
2022/02/16 13:28:36;;;;;;;13.88;3.80;;;;;;;;;;5087236;28;20048;-68
2022/02/16 13:31:25;;;;;;;22.60;4.30;;;;;;;;;;5085688;28;20045;-68
2022/02/16 13:34:20;;;;;;;15.75;3.65;;;;;;;;;;5087026;28;20182;-68
2022/02/16 13:36:46;;;;;;;23.15;3.95;;;;;;;;;;5114750;28;20056;-68
2022/02/16 13:39:20;;;;;;;23.98;3.90;;;;;;;;;;5086054;28;20044;-67
2022/02/16 13:41:56;;;;;;;16.55;3.70;;;;;;;;;;5086915;28;20381;-67
2022/02/16 13:44:29;;;;;;;18.50;4.18;;;;;;;;;;5082691;28;20045;-67
2022/02/16 13:46:57;;;;;;;21.13;3.80;;;;;;;;;;5076459;28;20136;-69
2022/02/16 13:49:25;;;;;;;14.57;3.50;;;;;;;;;;5084413;28;20060;-68
2022/02/16 13:51:56;;;;;;;18.65;3.90;;;;;;;;;;5079270;28;20446;-68
2022/02/16 13:54:28;;;;;;;21.98;3.63;;;;;;;;;;5085851;28;20045;-67
2022/02/16 13:56:58;;;;;;;17.63;4.50;;;;;;;;;;5086357;28;20108;-67
2022/02/16 13:59:25;;;;;;;20.05;5.28;;;;;;;;;;5085361;28;20036;-68
2022/02/16 14:02:08;;;;;;;11.95;3.60;;;;;;;;;;5085923;28;20124;-67
2022/02/16 14:04:35;;;;;;;20.50;4.40;;;;;;;;;;5083358;28;20060;-67
2022/02/16 14:07:02;;;;;;;17.48;4.57;;;;;;;;;;5085384;28;20428;-67
2022/02/16 14:09:29;;;;;;;27.40;4.57;;;;;;;;;;5118420;28;20155;-68
2022/02/16 14:11:55;;;;;;;26.15;4.40;;;;;;;;;;5085301;28;20072;-67
2022/02/16 14:14:21;;;;;;;22.67;4.63;;;;;;;;;;5084391;28;20041;-67
2022/02/16 14:16:47;;;;;;;25.77;5.32;;;;;;;;;;5085642;28;20040;-68
2022/02/16 14:19:22;;;;;;;19.70;4.97;;;;;;;;;;5085845;28;20076;-67
2022/02/16 14:21:49;;;;;;;23.17;5.63;;;;;;;;;;5084523;28;20055;-67
2022/02/16 14:24:15;;;;;;;29.55;6.63;;;;;;;;;;5085821;28;20041;-66
2022/02/16 14:26:41;;;;;;;27.73;5.25;;;;;;;;;;5085314;28;20477;-68
2022/02/16 14:29:07;;;;;;;28.05;4.82;;;;;;;;;;5083424;28;21085;-66
2022/02/16 14:31:33;;;;;;;20.13;4.93;;;;;;;;;;5079162;28;20051;-66
2022/02/16 14:33:59;;;;;;;26.05;5.35;;;;;;;;;;5065974;28;20084;-67
2022/02/16 14:36:25;;;;;;;23.05;4.97;;;;;;;;;;5098070;28;20140;-67